createdAt,value
2018-08-03T00:01:02.695Z,12.50
2018-08-03T00:03:38.266Z,12.37
2018-08-03T00:06:12.356Z,12.73
2018-08-03T00:08:46.687Z,12.10
2018-08-03T00:11:20.848Z,12.23
2018-08-03T00:13:54.968Z,12.90
2018-08-03T00:16:29.155Z,11.83
2018-08-03T00:19:03.598Z,11.50
2018-08-03T00:21:39.370Z,11.70
2018-08-03T00:24:14.711Z,12.70
2018-08-03T00:26:49.063Z,12.50
2018-08-03T00:29:23.157Z,10.57
2018-08-03T00:31:57.831Z,10.57
2018-08-03T00:34:33.515Z,12.90
2018-08-03T00:37:07.647Z,10.57
2018-08-03T00:39:41.922Z,10.97
2018-08-03T00:42:16.347Z,10.00
2018-08-03T00:44:51.567Z,11.13
2018-08-03T00:47:27.688Z,9.73
2018-08-03T00:50:02.037Z,9.67
2018-08-03T00:52:36.418Z,11.03
2018-08-03T00:55:11.954Z,10.67
2018-08-03T00:57:47.562Z,10.20
2018-08-03T01:00:21.771Z,10.20
2018-08-03T01:02:57.208Z,11.83
2018-08-03T01:05:31.286Z,10.43
2018-08-03T01:08:05.581Z,9.50
2018-08-03T01:10:39.786Z,10.57
2018-08-03T01:13:14.430Z,9.67
2018-08-03T01:15:48.852Z,9.83
2018-08-03T01:18:23.167Z,11.63
2018-08-03T01:20:58.595Z,10.27
2018-08-03T01:23:34.470Z,9.30
2018-08-03T01:26:08.598Z,12.67
2018-08-03T01:28:43.135Z,9.20
2018-08-03T01:31:17.346Z,9.73
2018-08-03T01:33:53.507Z,8.80
2018-08-03T01:36:27.942Z,10.53
2018-08-03T01:39:02.636Z,8.53
2018-08-03T01:41:36.787Z,9.33
2018-08-03T01:44:12.194Z,9.03
2018-08-03T01:49:28.058Z,12.53
2018-08-03T01:52:02.458Z,8.77
2018-08-03T01:54:37.817Z,9.77
2018-08-03T01:57:19.807Z,11.20
2018-08-03T01:59:54.185Z,12.40
2018-08-03T02:02:30.642Z,9.00
2018-08-03T02:05:04.730Z,8.27
2018-08-03T02:07:38.886Z,9.30
2018-08-03T02:10:13.130Z,9.07
2018-08-03T02:12:47.441Z,8.90
2018-08-03T02:15:21.706Z,8.90
2018-08-03T02:17:57.192Z,9.50
2018-08-03T02:20:33.242Z,9.30
2018-08-03T02:23:08.998Z,11.90
2018-08-03T02:25:44.643Z,8.33
2018-08-03T02:28:18.997Z,9.77
2018-08-03T02:30:53.023Z,10.20
2018-08-03T02:33:34.287Z,11.83
2018-08-03T02:36:08.387Z,9.77
2018-08-03T02:38:42.840Z,9.90
2018-08-03T02:41:16.899Z,11.07
2018-08-03T02:44:00.343Z,11.63
2018-08-03T02:46:34.716Z,11.80
2018-08-03T02:49:10.108Z,9.67
2018-08-03T02:51:44.283Z,10.87
2018-08-03T02:54:19.774Z,10.70
2018-08-03T02:56:53.863Z,10.07
2018-08-03T02:59:29.234Z,11.77
2018-08-03T03:02:04.885Z,11.37
2018-08-03T03:04:39.287Z,12.87
2018-08-03T03:07:13.523Z,14.87
2018-08-03T03:09:48.355Z,10.67
2018-08-03T03:12:22.628Z,10.70
2018-08-03T03:14:57.471Z,10.23
2018-08-03T03:17:33.176Z,13.50
2018-08-03T03:20:09.654Z,10.97
2018-08-03T03:22:59.502Z,11.00
2018-08-03T03:25:34.974Z,11.20
2018-08-03T03:28:09.134Z,11.10
2018-08-03T03:30:43.487Z,11.30
2018-08-03T03:33:17.996Z,12.37
2018-08-03T03:35:53.990Z,12.27
2018-08-03T03:38:28.322Z,11.37
2018-08-03T03:41:04.306Z,10.53
2018-08-03T03:43:38.691Z,12.57
2018-08-03T03:46:12.765Z,11.63
2018-08-03T03:48:48.395Z,12.50
2018-08-03T03:51:23.920Z,11.73
2018-08-03T03:53:59.559Z,12.47
2018-08-03T03:56:34.162Z,12.13
2018-08-03T03:59:09.926Z,10.90
2018-08-03T04:01:48.364Z,11.90
2018-08-03T04:04:22.655Z,12.07
2018-08-03T04:06:56.895Z,11.90
2018-08-03T04:09:31.175Z,11.80
2018-08-03T04:12:05.286Z,12.23
2018-08-03T04:14:39.469Z,11.17
2018-08-03T04:17:15.106Z,13.33
2018-08-03T04:19:49.306Z,14.50
2018-08-03T04:22:24.715Z,13.97
2018-08-03T04:25:00.095Z,12.70
2018-08-03T04:27:34.938Z,14.50
2018-08-03T04:30:09.418Z,13.53
2018-08-03T04:32:43.659Z,12.60
2018-08-03T04:35:19.254Z,12.20
2018-08-03T04:37:54.922Z,12.90
2018-08-03T04:40:29.177Z,12.03
2018-08-03T04:43:03.351Z,12.93
2018-08-03T04:45:37.820Z,13.47
2018-08-03T04:48:13.466Z,12.17
2018-08-03T04:50:48.948Z,11.50
2018-08-03T04:53:24.358Z,15.13
2018-08-03T04:55:58.803Z,14.60
2018-08-03T04:58:34.607Z,12.53
2018-08-03T05:01:10.454Z,12.00
2018-08-03T05:03:46.000Z,14.30
2018-08-03T05:06:20.230Z,14.40
2018-08-03T05:08:54.291Z,11.70
2018-08-03T05:11:28.434Z,12.67
2018-08-03T05:14:02.612Z,12.63
2018-08-03T05:16:37.185Z,13.27
2018-08-03T05:19:13.040Z,11.90
2018-08-03T05:21:48.391Z,10.63
2018-08-03T05:24:23.850Z,13.07
2018-08-03T05:26:58.079Z,12.73
2018-08-03T05:29:32.186Z,10.80
2018-08-03T05:32:07.601Z,14.30
2018-08-03T05:34:43.359Z,10.23
2018-08-03T05:37:17.470Z,10.03
2018-08-03T05:39:51.821Z,13.70
2018-08-03T05:42:25.933Z,12.13
2018-08-03T05:45:00.400Z,10.17
2018-08-03T05:47:36.889Z,10.37
2018-08-03T05:50:11.575Z,9.43
2018-08-03T05:52:46.986Z,11.50
2018-08-03T05:55:22.519Z,10.67
2018-08-03T05:57:56.782Z,10.40
2018-08-03T06:00:40.361Z,10.70
2018-08-03T06:03:16.345Z,10.20
2018-08-03T06:05:50.471Z,9.43
2018-08-03T06:08:24.596Z,10.13
2018-08-03T06:10:58.974Z,9.50
2018-08-03T06:13:33.191Z,9.73
2018-08-03T06:16:07.554Z,15.80
2018-08-03T06:18:43.313Z,11.40
2018-08-03T06:21:18.718Z,10.60
2018-08-03T06:23:54.826Z,11.40
2018-08-03T06:26:29.027Z,8.93
2018-08-03T06:29:03.522Z,8.30
2018-08-03T06:31:39.399Z,8.77
2018-08-03T06:34:15.028Z,9.00
2018-08-03T06:36:49.394Z,11.73
2018-08-03T06:39:23.899Z,9.23
2018-08-03T06:41:58.688Z,8.13
2018-08-03T06:44:33.026Z,8.87
2018-08-03T06:47:14.406Z,9.30
2018-08-03T06:49:48.706Z,9.13
2018-08-03T06:52:24.393Z,9.60
2018-08-03T06:55:00.237Z,9.57
2018-08-03T06:57:34.701Z,10.20
2018-08-03T07:00:10.516Z,8.57
2018-08-03T07:02:46.823Z,8.73
2018-08-03T07:05:21.263Z,10.30
2018-08-03T07:07:55.424Z,9.60
2018-08-03T07:10:30.328Z,8.77
2018-08-03T07:13:04.766Z,8.93
2018-08-03T07:15:39.211Z,8.43
2018-08-03T07:18:15.232Z,8.93
2018-08-03T07:20:51.631Z,9.77
2018-08-03T07:23:27.792Z,10.47
2018-08-03T07:26:02.804Z,8.97
2018-08-03T07:28:37.414Z,8.80
2018-08-03T07:31:13.164Z,9.57
2018-08-03T07:33:49.579Z,9.37
2018-08-03T07:36:23.941Z,9.90
2018-08-03T07:38:58.440Z,9.80
2018-08-03T07:41:32.538Z,12.03
2018-08-03T07:44:06.768Z,11.00
2018-08-03T07:46:41.055Z,9.80
2018-08-03T07:49:16.483Z,12.00
2018-08-03T07:51:51.921Z,9.97
2018-08-03T07:54:27.166Z,12.30
2018-08-03T07:57:03.055Z,9.80
2018-08-03T07:59:39.009Z,9.03
2018-08-03T08:02:14.779Z,10.07
2018-08-03T08:04:50.687Z,9.93
2018-08-03T08:07:24.983Z,9.97
2018-08-03T08:09:58.991Z,10.50
2018-08-03T08:12:33.411Z,12.53
2018-08-03T08:15:07.686Z,11.83
2018-08-03T08:17:43.339Z,10.57
2018-08-03T08:20:19.299Z,9.27
2018-08-03T08:23:10.179Z,9.83
2018-08-03T08:25:45.680Z,10.53
2018-08-03T08:28:21.275Z,9.77
2018-08-03T08:30:55.392Z,10.43
2018-08-03T08:33:34.191Z,9.87
2018-08-03T08:36:08.441Z,11.63
2018-08-03T08:38:43.866Z,10.10
2018-08-03T08:41:17.978Z,10.67
2018-08-03T08:43:52.760Z,13.10
2018-08-03T08:46:26.733Z,9.43
2018-08-03T08:49:01.995Z,9.50
2018-08-03T08:51:37.274Z,9.27
2018-08-03T08:54:12.694Z,11.40
2018-08-03T08:56:47.079Z,12.53
2018-08-03T08:59:21.330Z,11.17
2018-08-03T09:01:56.640Z,9.37
2018-08-03T09:04:32.702Z,11.57
2018-08-03T09:07:07.248Z,10.73
2018-08-03T09:09:41.430Z,10.37
2018-08-03T09:12:15.734Z,11.77
2018-08-03T09:14:49.986Z,11.13
2018-08-03T09:17:25.629Z,9.97
2018-08-03T09:20:05.121Z,11.03
2018-08-03T09:22:39.894Z,10.40
2018-08-03T09:25:15.738Z,11.17
2018-08-03T09:27:50.134Z,11.20
2018-08-03T09:30:24.192Z,10.93
2018-08-03T09:32:58.727Z,10.37
2018-08-03T09:35:34.248Z,13.13
2018-08-03T09:38:08.470Z,10.40
2018-08-03T09:40:42.598Z,12.33
2018-08-03T09:43:16.918Z,10.80
2018-08-03T09:45:51.117Z,13.40
2018-08-03T09:48:27.494Z,10.33
2018-08-03T09:51:03.027Z,10.10
2018-08-03T09:53:38.370Z,10.90
2018-08-03T09:56:12.458Z,11.23
2018-08-03T09:58:46.934Z,9.53
2018-08-03T10:01:22.823Z,11.87
2018-08-03T10:03:57.075Z,10.87
2018-08-03T10:06:31.339Z,10.37
2018-08-03T10:09:05.983Z,12.33
2018-08-03T10:11:40.121Z,11.03
2018-08-03T10:14:14.342Z,9.60
2018-08-03T10:16:48.551Z,10.67
2018-08-03T10:19:24.326Z,10.23
2018-08-03T10:22:00.032Z,10.83
2018-08-03T10:24:35.654Z,9.93
2018-08-03T10:27:10.173Z,9.90
2018-08-03T10:29:44.320Z,10.13
2018-08-03T10:32:18.492Z,10.20
2018-08-03T10:34:54.452Z,10.40
2018-08-03T10:37:29.996Z,9.77
2018-08-03T10:40:04.468Z,12.70
2018-08-03T10:42:38.476Z,9.23
2018-08-03T10:45:12.816Z,9.20
2018-08-03T10:47:48.562Z,9.37
2018-08-03T10:50:27.774Z,9.50
2018-08-03T10:54:36.662Z,9.97
2018-08-03T10:57:10.763Z,10.30
2018-08-03T10:59:45.386Z,10.00
2018-08-03T11:02:20.866Z,10.00
2018-08-03T11:04:56.491Z,10.17
2018-08-03T11:07:30.643Z,10.00
2018-08-03T11:10:04.816Z,9.53
2018-08-03T11:12:39.043Z,11.17
2018-08-03T11:15:13.482Z,9.97
2018-08-03T11:17:50.254Z,9.83
2018-08-03T11:20:25.896Z,8.90
2018-08-03T11:25:54.601Z,9.87
2018-08-03T11:28:28.675Z,9.53
2018-08-03T11:31:02.936Z,10.43
2018-08-03T11:33:38.897Z,9.90
2018-08-03T11:36:13.535Z,10.30
2018-08-03T11:38:48.301Z,10.33
2018-08-03T11:41:22.893Z,10.90
2018-08-03T11:43:58.038Z,10.70
2018-08-03T11:46:32.776Z,10.23
2018-08-03T11:49:09.213Z,12.87
2018-08-03T11:51:45.327Z,10.90
2018-08-03T11:54:21.058Z,10.27
2018-08-03T11:56:55.466Z,10.87
2018-08-03T11:59:29.570Z,11.70
2018-08-03T12:02:05.448Z,10.10
2018-08-03T12:04:40.152Z,10.17
2018-08-03T12:07:14.275Z,10.10
2018-08-03T12:09:48.762Z,10.70
2018-08-03T12:12:22.928Z,9.93
2018-08-03T12:14:57.222Z,10.50
2018-08-03T12:17:39.423Z,10.37
2018-08-03T12:20:15.653Z,9.70
2018-08-03T12:22:49.750Z,10.93
2018-08-03T12:25:26.122Z,11.00
2018-08-03T12:28:00.533Z,10.80
2018-08-03T12:30:35.025Z,9.47
2018-08-03T12:33:09.571Z,9.60
2018-08-03T12:35:45.506Z,8.90
2018-08-03T12:38:19.831Z,11.20
2018-08-03T12:40:54.717Z,10.63
2018-08-03T12:43:29.179Z,11.60
2018-08-03T12:46:05.012Z,10.37
2018-08-03T12:48:40.798Z,11.13
2018-08-03T12:51:17.261Z,9.47
2018-08-03T12:53:53.360Z,12.20
2018-08-03T12:56:27.673Z,10.57
2018-08-03T12:59:01.747Z,11.33
2018-08-03T13:01:38.621Z,9.93
2018-08-03T13:04:12.865Z,25.00
2018-08-03T13:06:47.285Z,10.83
2018-08-03T13:09:22.027Z,10.73
2018-08-03T13:11:56.250Z,10.53
2018-08-03T13:14:30.483Z,10.50
2018-08-03T13:17:07.226Z,11.07
2018-08-03T13:19:41.807Z,10.20
2018-08-03T13:22:18.423Z,10.97
2018-08-03T13:24:54.468Z,11.43
2018-08-03T13:27:29.645Z,10.63
2018-08-03T13:30:04.999Z,11.73
2018-08-03T13:32:39.322Z,11.43
2018-08-03T13:35:15.414Z,11.73
2018-08-03T13:37:50.394Z,13.10
2018-08-03T13:40:24.526Z,12.83
2018-08-03T13:42:59.160Z,12.37
2018-08-03T13:45:33.531Z,13.53
2018-08-03T13:48:09.156Z,11.70
2018-08-03T13:50:45.524Z,10.80
2018-08-03T13:53:22.191Z,11.57
2018-08-03T13:55:57.691Z,11.27
2018-08-03T13:58:31.954Z,11.80
2018-08-03T14:01:15.290Z,11.57
2018-08-03T14:03:51.460Z,11.60
2018-08-03T14:06:25.710Z,10.60
2018-08-03T14:08:59.810Z,11.13
2018-08-03T14:11:33.940Z,11.27
2018-08-03T14:14:09.483Z,11.40
2018-08-03T14:16:43.750Z,11.10
2018-08-03T14:19:19.412Z,11.73
2018-08-03T14:21:55.657Z,11.10
2018-08-03T14:24:31.128Z,11.97
2018-08-03T14:27:05.925Z,11.70
2018-08-03T14:29:40.156Z,12.47
2018-08-03T14:32:14.458Z,10.87
2018-08-03T14:34:50.666Z,11.10
2018-08-03T14:37:25.152Z,12.17
2018-08-03T14:39:59.258Z,11.13
2018-08-03T14:42:33.499Z,10.60
2018-08-03T14:45:07.973Z,11.10
2018-08-03T14:47:43.620Z,11.30
2018-08-03T14:50:26.502Z,18.10
2018-08-03T14:53:07.416Z,11.40
2018-08-03T14:55:42.013Z,10.70
2018-08-03T14:58:16.271Z,10.27
2018-08-03T15:00:52.495Z,28.10
2018-08-03T15:03:28.137Z,15.13
2018-08-03T15:06:02.163Z,10.43
2018-08-03T15:08:36.970Z,12.37
2018-08-03T15:11:12.934Z,10.33
2018-08-03T15:13:47.779Z,12.33
2018-08-03T15:16:22.698Z,11.40
2018-08-03T15:19:00.190Z,11.30
2018-08-03T15:21:35.859Z,11.70
2018-08-03T15:24:12.211Z,10.83
2018-08-03T15:26:46.449Z,10.30
2018-08-03T15:29:20.858Z,10.53
2018-08-03T15:31:55.475Z,12.33
2018-08-03T15:34:31.416Z,11.37
2018-08-03T15:37:06.031Z,12.63
2018-08-03T15:39:40.471Z,11.57
2018-08-03T15:42:14.990Z,10.37
2018-08-03T15:44:49.216Z,11.63
2018-08-03T15:47:23.858Z,14.50
2018-08-03T15:49:59.598Z,11.93
2018-08-03T15:52:35.264Z,10.93
2018-08-03T15:55:11.111Z,10.50
2018-08-03T15:57:45.270Z,11.23
2018-08-03T16:00:19.650Z,11.30
2018-08-03T16:02:55.854Z,11.93
2018-08-03T16:05:30.008Z,10.60
2018-08-03T16:08:05.803Z,8.80
2018-08-03T16:10:39.944Z,10.80
2018-08-03T16:13:14.537Z,10.63
2018-08-03T16:15:48.910Z,10.90
2018-08-03T16:18:24.707Z,11.07
2018-08-03T16:21:01.300Z,10.60
2018-08-03T16:23:36.927Z,15.20
2018-08-03T16:26:12.751Z,9.97
2018-08-03T16:28:46.886Z,10.53
2018-08-03T16:31:21.114Z,21.27
2018-08-03T16:33:57.264Z,15.70
2018-08-03T16:36:31.467Z,11.20
2018-08-03T16:39:07.095Z,11.30
2018-08-03T16:41:41.150Z,9.83
2018-08-03T16:44:15.418Z,10.60
2018-08-03T16:46:49.591Z,10.67
2018-08-03T16:49:25.229Z,10.53
2018-08-03T16:52:00.758Z,12.23
2018-08-03T16:54:36.420Z,11.60
2018-08-03T16:57:10.460Z,10.50
2018-08-03T16:59:44.838Z,11.03
2018-08-03T17:02:20.234Z,11.77
2018-08-03T17:04:55.578Z,10.40
2018-08-03T17:07:31.046Z,10.90
2018-08-03T17:10:05.182Z,11.57
2018-08-03T17:12:39.686Z,11.20
2018-08-03T17:15:13.684Z,9.87
2018-08-03T17:17:49.589Z,9.87
2018-08-03T17:20:25.982Z,11.53
2018-08-03T17:23:00.243Z,10.20
2018-08-03T17:25:35.724Z,9.70
2018-08-03T17:28:10.034Z,12.10
2018-08-03T17:30:44.107Z,9.13
2018-08-03T17:33:18.435Z,10.63
2018-08-03T17:35:54.314Z,11.10
2018-08-03T17:38:28.969Z,9.00
2018-08-03T17:41:03.070Z,10.07
2018-08-03T17:43:37.539Z,10.03
2018-08-03T17:46:11.614Z,9.87
2018-08-03T17:48:47.430Z,9.50
2018-08-03T17:51:23.405Z,10.43
2018-08-03T17:54:04.625Z,10.67
2018-08-03T17:56:38.914Z,10.37
2018-08-03T17:59:13.362Z,10.67
2018-08-03T18:01:49.671Z,14.73
2018-08-03T18:04:25.556Z,11.53
2018-08-03T18:07:02.002Z,12.50
2018-08-03T18:09:36.544Z,12.83
2018-08-03T18:12:10.983Z,13.07
2018-08-03T18:14:45.383Z,14.83
2018-08-03T18:17:21.256Z,15.73
2018-08-03T18:19:55.718Z,17.37
2018-08-03T18:22:31.714Z,15.40
2018-08-03T18:25:07.507Z,14.83
2018-08-03T18:27:41.960Z,15.70
2018-08-03T18:30:16.383Z,17.90
2018-08-03T18:32:50.931Z,14.73
2018-08-03T18:35:26.796Z,15.23
2018-08-03T18:38:02.454Z,17.90
2018-08-03T18:40:36.987Z,15.57
2018-08-03T18:43:11.502Z,22.30
2018-08-03T18:45:45.886Z,15.37
2018-08-03T18:48:21.849Z,15.87
2018-08-03T18:50:57.741Z,14.73
2018-08-03T18:53:33.555Z,18.77
2018-08-03T18:56:09.673Z,16.20
2018-08-03T18:58:45.406Z,16.97
2018-08-03T19:01:21.245Z,18.20
2018-08-03T19:04:05.307Z,15.83
2018-08-03T19:06:48.008Z,15.00
2018-08-03T19:09:22.850Z,14.50
2018-08-03T19:11:57.147Z,17.20
2018-08-03T19:14:31.835Z,17.47
2018-08-03T19:17:09.647Z,14.80
2018-08-03T19:19:44.138Z,14.30
2018-08-03T19:22:20.612Z,15.83
2018-08-03T19:24:56.327Z,15.10
2018-08-03T19:27:31.170Z,13.37
2018-08-03T19:30:06.735Z,14.80
2018-08-03T19:32:41.146Z,14.70
2018-08-03T19:35:16.676Z,14.87
2018-08-03T19:37:52.483Z,15.57
2018-08-03T19:40:26.767Z,14.17
2018-08-03T19:43:01.240Z,15.30
2018-08-03T19:45:35.853Z,13.80
2018-08-03T19:48:11.844Z,13.77
2018-08-03T19:50:47.858Z,15.40
2018-08-03T19:53:23.787Z,14.63
2018-08-03T19:55:58.740Z,12.30
2018-08-03T19:58:34.642Z,12.23
2018-08-03T20:01:10.839Z,14.50
2018-08-03T20:03:46.522Z,13.23
2018-08-03T20:06:23.035Z,14.20
2018-08-03T20:08:58.559Z,16.13
2018-08-03T20:11:34.347Z,14.30
2018-08-03T20:14:09.068Z,13.60
2018-08-03T20:16:43.457Z,13.33
2018-08-03T20:19:19.867Z,15.27
2018-08-03T20:21:55.939Z,14.27
2018-08-03T20:24:32.619Z,15.57
2018-08-03T20:27:07.058Z,15.40
2018-08-03T20:29:41.680Z,14.43
2018-08-03T20:32:15.973Z,15.00
2018-08-03T20:34:51.736Z,20.40
2018-08-03T20:37:26.295Z,18.27
2018-08-03T20:40:01.270Z,20.17
2018-08-03T20:42:35.615Z,14.63
2018-08-03T20:45:10.143Z,14.80
2018-08-03T20:47:55.096Z,17.93
2018-08-03T20:50:31.541Z,14.13
2018-08-03T20:53:09.067Z,13.90
2018-08-03T20:55:43.505Z,14.50
2018-08-03T20:58:19.007Z,14.73
2018-08-03T21:01:01.846Z,15.70
2018-08-03T21:03:36.174Z,15.20
2018-08-03T21:06:12.135Z,14.27
2018-08-03T21:08:46.487Z,13.77
2018-08-03T21:11:20.979Z,13.30
2018-08-03T21:13:55.396Z,16.17
2018-08-03T21:16:30.212Z,16.10
2018-08-03T21:19:06.575Z,15.43
2018-08-03T21:21:42.664Z,19.87
2018-08-03T21:24:18.856Z,17.30
2018-08-03T21:26:53.191Z,16.47
2018-08-03T21:29:27.775Z,14.83
2018-08-03T21:32:02.220Z,15.87
2018-08-03T21:34:38.436Z,14.47
2018-08-03T21:37:14.387Z,16.20
2018-08-03T21:39:48.934Z,17.70
2018-08-03T21:42:23.386Z,15.37
2018-08-03T21:44:57.860Z,18.63
2018-08-03T21:47:32.147Z,16.57
2018-08-03T21:50:08.239Z,18.47
2018-08-03T21:52:44.125Z,23.87
2018-08-03T21:55:19.839Z,16.53
2018-08-03T21:57:54.216Z,18.30
2018-08-03T22:00:29.932Z,16.63
2018-08-03T22:03:06.258Z,17.93
2018-08-03T22:05:42.331Z,17.03
2018-08-03T22:08:16.802Z,18.50
2018-08-03T22:10:51.409Z,21.50
2018-08-03T22:13:25.781Z,15.20
2018-08-03T22:16:00.166Z,15.07
2018-08-03T22:18:36.191Z,16.97
2018-08-03T22:21:12.094Z,17.53
2018-08-03T22:23:47.836Z,14.47
2018-08-03T22:26:22.018Z,16.60
2018-08-03T22:28:56.414Z,15.20
2018-08-03T22:31:30.892Z,14.67
2018-08-03T22:34:07.617Z,15.47
2018-08-03T22:36:42.070Z,16.80
2018-08-03T22:39:16.431Z,14.97
2018-08-03T22:41:51.210Z,16.00
2018-08-03T22:44:25.583Z,20.10
2018-08-03T22:47:00.171Z,18.07
2018-08-03T22:49:35.982Z,15.87
2018-08-03T22:52:11.941Z,16.07
2018-08-03T22:54:47.750Z,14.77
2018-08-03T22:57:22.307Z,15.50
2018-08-03T22:59:58.400Z,16.53
2018-08-03T23:02:34.207Z,15.23
2018-08-03T23:05:09.211Z,15.87
2018-08-03T23:07:45.167Z,15.27
2018-08-03T23:10:19.698Z,16.17
2018-08-03T23:12:54.127Z,15.63
2018-08-03T23:15:28.627Z,15.63
2018-08-03T23:18:04.991Z,15.50
2018-08-03T23:20:40.890Z,16.90
2018-08-03T23:26:02.853Z,16.83
2018-08-03T23:28:37.519Z,16.80
2018-08-03T23:31:12.139Z,15.73
2018-08-03T23:33:48.106Z,14.70
2018-08-03T23:36:22.728Z,19.20
2018-08-03T23:38:57.295Z,15.10
2018-08-03T23:41:31.772Z,17.50
2018-08-03T23:44:06.267Z,14.73
2018-08-03T23:46:40.763Z,15.03
2018-08-03T23:49:16.777Z,15.47
2018-08-03T23:51:52.855Z,16.67
2018-08-03T23:54:28.918Z,16.10
2018-08-03T23:57:03.383Z,15.43
2018-08-03T23:59:40.203Z,15.93
